createdAt,value
2018-04-27T00:00:33.907Z,100491.47
2018-04-27T00:03:01.566Z,100495.27
2018-04-27T00:05:29.178Z,100489.78
2018-04-27T00:07:56.826Z,100497.69
2018-04-27T00:10:24.444Z,100486.03
2018-04-27T00:12:52.106Z,100484.91
2018-04-27T00:15:19.714Z,100486.02
2018-04-27T00:17:47.411Z,100476.23
2018-04-27T00:20:15.068Z,100480.25
2018-04-27T00:22:42.682Z,100484.35
2018-04-27T00:25:10.335Z,100482.70
2018-04-27T00:27:37.947Z,100482.62
2018-04-27T00:30:05.603Z,100477.05
2018-04-27T00:32:33.227Z,100474.84
2018-04-27T00:35:00.909Z,100479.12
2018-04-27T00:37:28.523Z,100481.55
2018-04-27T00:39:56.172Z,100484.64
2018-04-27T00:42:23.785Z,100478.30
2018-04-27T00:44:51.435Z,100486.69
2018-04-27T00:47:19.036Z,100476.73
2018-04-27T00:49:46.678Z,100482.02
2018-04-27T00:52:14.281Z,100480.35
2018-04-27T00:54:41.926Z,100472.05
2018-04-27T00:57:09.519Z,100468.59
2018-04-27T00:59:37.163Z,100463.59
2018-04-27T01:02:04.767Z,100464.88
2018-04-27T01:04:32.409Z,100459.64
2018-04-27T01:07:00.002Z,100457.23
2018-04-27T01:09:27.644Z,100458.35
2018-04-27T01:11:55.248Z,100462.61
2018-04-27T01:14:22.891Z,100455.82
2018-04-27T01:16:50.483Z,100452.27
2018-04-27T01:19:18.126Z,100460.53
2018-04-27T01:21:45.721Z,100454.86
2018-04-27T01:24:13.367Z,100451.96
2018-04-27T01:26:41.779Z,100456.19
2018-04-27T01:29:09.424Z,100456.36
2018-04-27T01:31:37.083Z,100451.15
2018-04-27T01:34:04.723Z,100459.35
2018-04-27T01:36:32.342Z,100460.77
2018-04-27T01:38:59.988Z,100464.20
2018-04-27T01:41:27.632Z,100462.31
2018-04-27T01:43:55.280Z,100456.45
2018-04-27T01:46:22.887Z,100457.63
2018-04-27T01:48:50.537Z,100462.83
2018-04-27T01:51:18.152Z,100469.94
2018-04-27T01:53:45.799Z,100462.28
2018-04-27T01:56:13.400Z,100470.00
2018-04-27T01:58:41.044Z,100469.30
2018-04-27T02:01:08.647Z,100473.09
2018-04-27T02:03:36.297Z,100466.58
2018-04-27T02:06:03.937Z,100467.23
2018-04-27T02:08:31.582Z,100467.79
2018-04-27T02:10:59.231Z,100460.34
2018-04-27T02:13:26.878Z,100462.50
2018-04-27T02:15:54.533Z,100460.08
2018-04-27T02:18:22.152Z,100462.91
2018-04-27T02:20:49.794Z,100455.16
2018-04-27T02:23:17.397Z,100456.73
2018-04-27T02:25:45.038Z,100458.50
2018-04-27T02:28:12.644Z,100450.01
2018-04-27T02:30:40.296Z,100449.41
2018-04-27T02:33:07.908Z,100447.91
2018-04-27T02:35:35.560Z,100446.68
2018-04-27T02:38:03.180Z,100441.94
2018-04-27T02:40:30.827Z,100444.66
2018-04-27T02:42:58.436Z,100444.88
2018-04-27T02:45:26.083Z,100434.47
2018-04-27T02:47:53.694Z,100434.95
2018-04-27T02:50:21.350Z,100434.52
2018-04-27T02:52:48.974Z,100440.43
2018-04-27T02:55:16.618Z,100428.38
2018-04-27T02:57:44.240Z,100432.54
2018-04-27T03:00:11.888Z,100427.88
2018-04-27T03:02:39.487Z,100419.52
2018-04-27T03:05:07.192Z,100424.15
2018-04-27T03:07:34.805Z,100411.98
2018-04-27T03:10:02.495Z,100417.05
2018-04-27T03:12:30.131Z,100415.05
2018-04-27T03:14:57.828Z,100404.42
2018-04-27T03:17:25.460Z,100401.17
2018-04-27T03:19:53.122Z,100397.39
2018-04-27T03:22:20.740Z,100394.87
2018-04-27T03:24:48.401Z,100389.21
2018-04-27T03:27:16.016Z,100392.69
2018-04-27T03:29:43.699Z,100387.86
2018-04-27T03:32:11.344Z,100386.05
2018-04-27T03:34:38.996Z,100382.62
2018-04-27T03:37:06.613Z,100377.44
2018-04-27T03:39:34.261Z,100369.77
2018-04-27T03:42:01.885Z,100361.41
2018-04-27T03:44:29.540Z,100356.11
2018-04-27T03:46:57.168Z,100357.44
2018-04-27T03:49:24.821Z,100352.63
2018-04-27T03:51:52.520Z,100355.52
2018-04-27T03:54:20.117Z,100351.41
2018-04-27T03:56:47.721Z,100349.30
2018-04-27T03:59:21.272Z,100343.09
2018-04-27T04:02:00.816Z,100342.39
2018-04-27T04:04:40.242Z,100343.03
2018-04-27T04:07:07.859Z,100339.49
2018-04-27T04:09:35.503Z,100334.92
2018-04-27T04:12:03.123Z,100332.27
2018-04-27T04:14:30.784Z,100330.07
2018-04-27T04:16:58.394Z,100324.54
2018-04-27T04:19:26.023Z,100326.84
2018-04-27T04:21:53.669Z,100322.38
2018-04-27T04:24:21.275Z,100321.23
2018-04-27T04:26:48.964Z,100322.51
2018-04-27T04:29:16.566Z,100323.34
2018-04-27T04:31:44.202Z,100328.22
2018-04-27T04:34:11.822Z,100322.19
2018-04-27T04:36:39.491Z,100323.75
2018-04-27T04:39:07.162Z,100320.43
2018-04-27T04:41:34.804Z,100317.95
2018-04-27T04:44:02.446Z,100319.84
2018-04-27T04:46:30.100Z,100323.99
2018-04-27T04:48:57.714Z,100319.77
2018-04-27T04:51:25.367Z,100318.48
2018-04-27T04:53:52.999Z,100313.05
2018-04-27T04:56:20.659Z,100310.06
2018-04-27T04:58:48.262Z,100312.81
2018-04-27T05:01:15.915Z,100311.23
2018-04-27T05:03:43.563Z,100312.35
2018-04-27T05:06:11.272Z,100309.16
2018-04-27T05:08:38.882Z,100318.00
2018-04-27T05:11:06.559Z,100318.78
2018-04-27T05:13:34.162Z,100323.91
2018-04-27T05:16:01.830Z,100318.72
2018-04-27T05:18:30.911Z,100309.25
2018-04-27T05:20:58.568Z,100314.89
2018-04-27T05:23:26.183Z,100319.98
2018-04-27T05:25:53.840Z,100314.11
2018-04-27T05:28:21.455Z,100305.24
2018-04-27T05:30:49.143Z,100302.02
2018-04-27T05:33:17.266Z,100301.45
2018-04-27T05:35:44.935Z,100295.60
2018-04-27T05:38:12.561Z,100296.05
2018-04-27T05:40:40.260Z,100296.61
2018-04-27T05:43:07.865Z,100299.57
2018-04-27T05:45:35.521Z,100299.46
2018-04-27T05:48:03.131Z,100300.45
2018-04-27T05:50:30.794Z,100296.75
2018-04-27T05:52:58.462Z,100290.92
2018-04-27T05:55:26.119Z,100292.62
2018-04-27T05:57:53.727Z,100286.11
2018-04-27T06:00:21.388Z,100295.42
2018-04-27T06:02:49.026Z,100296.14
2018-04-27T06:05:16.716Z,100295.31
2018-04-27T06:07:44.343Z,100283.04
2018-04-27T06:10:12.064Z,100288.93
2018-04-27T06:12:39.672Z,100285.55
2018-04-27T06:15:07.327Z,100284.48
2018-04-27T06:17:34.945Z,100282.05
2018-04-27T06:20:02.549Z,100275.08
2018-04-27T06:22:30.199Z,100273.97
2018-04-27T06:24:57.814Z,100282.88
2018-04-27T06:27:25.494Z,100270.63
2018-04-27T06:29:53.241Z,100269.42
2018-04-27T06:32:20.900Z,100256.52
2018-04-27T06:34:48.598Z,100254.36
2018-04-27T06:37:16.356Z,100259.61
2018-04-27T06:39:44.043Z,100263.84
2018-04-27T06:42:11.689Z,100248.92
2018-04-27T06:44:40.079Z,100257.17
2018-04-27T06:47:07.770Z,100255.08
2018-04-27T06:49:35.370Z,100247.95
2018-04-27T06:52:03.023Z,100243.22
2018-04-27T06:54:30.631Z,100247.00
2018-04-27T06:56:58.275Z,100239.33
2018-04-27T06:59:26.159Z,100239.09
2018-04-27T07:01:53.831Z,100241.81
2018-04-27T07:04:21.567Z,100241.59
2018-04-27T07:06:49.225Z,100229.72
2018-04-27T07:09:16.858Z,100233.91
2018-04-27T07:11:44.518Z,100229.31
2018-04-27T07:14:12.218Z,100227.31
2018-04-27T07:16:39.896Z,100231.36
2018-04-27T07:19:07.513Z,100227.64
2018-04-27T07:21:36.099Z,100222.79
2018-04-27T07:24:03.710Z,100222.42
2018-04-27T07:26:31.349Z,100220.81
2018-04-27T07:28:58.950Z,100219.63
2018-04-27T07:31:26.594Z,100209.09
2018-04-27T07:33:54.198Z,100211.11
2018-04-27T07:36:21.899Z,100211.59
2018-04-27T07:38:49.540Z,100214.74
2018-04-27T07:41:17.219Z,100214.67
2018-04-27T07:43:44.832Z,100212.23
2018-04-27T07:46:12.509Z,100209.41
2018-04-27T07:48:40.138Z,100200.55
2018-04-27T07:51:07.791Z,100197.31
2018-04-27T07:53:35.400Z,100201.64
2018-04-27T07:56:03.051Z,100196.81
2018-04-27T07:58:30.741Z,100184.88
2018-04-27T08:00:58.388Z,100181.80
2018-04-27T08:03:25.997Z,100190.97
2018-04-27T08:05:53.646Z,100185.34
2018-04-27T08:08:21.274Z,100178.67
2018-04-27T08:10:49.029Z,100178.92
2018-04-27T08:13:17.298Z,100173.19
2018-04-27T08:15:44.959Z,100169.03
2018-04-27T08:18:12.573Z,100167.84
2018-04-27T08:20:40.267Z,100163.05
2018-04-27T08:23:07.896Z,100166.22
2018-04-27T08:25:35.573Z,100159.17
2018-04-27T08:28:03.261Z,100159.34
2018-04-27T08:30:30.884Z,100158.40
2018-04-27T08:32:58.542Z,100158.19
2018-04-27T08:35:26.182Z,100160.23
2018-04-27T08:37:53.838Z,100160.84
2018-04-27T08:40:21.464Z,100149.97
2018-04-27T08:42:49.123Z,100147.78
2018-04-27T08:45:16.739Z,100143.80
2018-04-27T08:47:44.382Z,100142.31
2018-04-27T08:50:12.014Z,100147.09
2018-04-27T08:52:39.671Z,100138.91
2018-04-27T08:55:07.274Z,100137.72
2018-04-27T08:57:34.971Z,100134.20
2018-04-27T09:00:02.704Z,100128.05
2018-04-27T09:02:30.360Z,100129.45
2018-04-27T09:04:57.975Z,100123.13
2018-04-27T09:07:25.626Z,100116.41
2018-04-27T09:09:53.231Z,100114.25
2018-04-27T09:12:20.886Z,100122.73
2018-04-27T09:14:48.504Z,100107.59
2018-04-27T09:17:16.155Z,100107.01
2018-04-27T09:19:43.787Z,100098.13
2018-04-27T09:22:11.442Z,100098.52
2018-04-27T09:24:39.075Z,100100.17
2018-04-27T09:27:06.743Z,100095.09
2018-04-27T09:29:34.399Z,100088.09
2018-04-27T09:32:02.050Z,100088.28
2018-04-27T09:34:29.713Z,100087.09
2018-04-27T09:36:57.367Z,100087.20
2018-04-27T09:39:25.011Z,100077.45
2018-04-27T09:41:52.672Z,100076.70
2018-04-27T09:44:20.347Z,100076.05
2018-04-27T09:46:48.023Z,100080.29
2018-04-27T09:49:15.638Z,100067.16
2018-04-27T09:51:43.257Z,100059.66
2018-04-27T09:54:10.910Z,100061.78
2018-04-27T09:56:38.523Z,100044.23
2018-04-27T09:59:06.179Z,100038.36
2018-04-27T10:01:33.804Z,100025.36
2018-04-27T10:04:01.473Z,100026.61
2018-04-27T10:06:29.103Z,100023.27
2018-04-27T10:08:56.756Z,100006.87
2018-04-27T10:11:24.361Z,99994.06
2018-04-27T10:13:52.006Z,99993.66
2018-04-27T10:16:19.623Z,99995.20
2018-04-27T10:18:47.271Z,99996.28
2018-04-27T10:21:14.891Z,99995.47
2018-04-27T10:23:42.555Z,99989.42
2018-04-27T10:26:10.163Z,99989.77
2018-04-27T10:28:37.810Z,99990.05
2018-04-27T10:31:05.441Z,99980.20
2018-04-27T10:33:33.122Z,99974.30
2018-04-27T10:36:00.735Z,99972.62
2018-04-27T10:38:28.340Z,99964.43
2018-04-27T10:40:55.991Z,99963.37
2018-04-27T10:43:23.611Z,99956.27
2018-04-27T10:45:51.267Z,99946.42
2018-04-27T10:48:18.892Z,99938.55
2018-04-27T10:50:46.570Z,99933.03
2018-04-27T10:53:14.182Z,99926.09
2018-04-27T10:55:41.827Z,99928.59
2018-04-27T10:58:09.498Z,99935.31
2018-04-27T11:00:37.168Z,99928.71
2018-04-27T11:03:04.862Z,99932.59
2018-04-27T11:05:32.527Z,99925.86
2018-04-27T11:08:00.131Z,99928.45
2018-04-27T11:10:27.787Z,99919.89
2018-04-27T11:12:55.403Z,99921.52
2018-04-27T11:15:23.055Z,99916.78
2018-04-27T11:17:50.678Z,99909.47
2018-04-27T11:20:18.347Z,99914.83
2018-04-27T11:22:45.994Z,99906.48
2018-04-27T11:25:13.656Z,99904.03
2018-04-27T11:27:41.321Z,99884.33
2018-04-27T11:30:08.933Z,99874.44
2018-04-27T11:32:36.583Z,99884.21
2018-04-27T11:35:04.203Z,99872.19
2018-04-27T11:37:31.847Z,99872.64
2018-04-27T11:39:59.466Z,99869.06
2018-04-27T11:42:27.130Z,99866.68
2018-04-27T11:44:54.743Z,99863.39
2018-04-27T11:47:22.390Z,99852.69
2018-04-27T11:49:49.992Z,99858.82
2018-04-27T11:52:17.643Z,99852.55
2018-04-27T11:54:45.259Z,99852.62
2018-04-27T11:57:13.039Z,99846.02
2018-04-27T11:59:40.722Z,99841.41
2018-04-27T12:02:09.202Z,99835.05
2018-04-27T12:04:36.862Z,99832.20
2018-04-27T12:07:04.552Z,99819.03
2018-04-27T12:09:32.160Z,99836.22
2018-04-27T12:11:59.831Z,99840.13
2018-04-27T12:14:27.438Z,99841.22
2018-04-27T12:16:55.087Z,99829.47
2018-04-27T12:19:22.706Z,99814.61
2018-04-27T12:21:50.347Z,99825.70
2018-04-27T12:24:17.963Z,99822.62
2018-04-27T12:26:45.625Z,99807.26
2018-04-27T12:29:13.251Z,99795.87
2018-04-27T12:31:41.019Z,99796.52
2018-04-27T12:34:08.575Z,99790.94
2018-04-27T12:36:36.218Z,99775.77
2018-04-27T12:39:03.981Z,99771.13
2018-04-27T12:41:31.581Z,99761.82
2018-04-27T12:43:59.231Z,99761.78
2018-04-27T12:46:26.952Z,99746.70
2018-04-27T12:48:54.650Z,99754.15
2018-04-27T12:51:22.307Z,99748.78
2018-04-27T12:53:49.994Z,99740.58
2018-04-27T12:56:17.594Z,99734.00
2018-04-27T12:58:45.246Z,99725.17
2018-04-27T13:01:12.856Z,99722.98
2018-04-27T13:03:40.495Z,99713.45
2018-04-27T13:06:08.093Z,99712.72
2018-04-27T13:08:35.732Z,99698.89
2018-04-27T13:11:03.341Z,99696.33
2018-04-27T13:13:30.984Z,99689.94
2018-04-27T13:16:04.069Z,99674.03
2018-04-27T13:18:31.717Z,99672.41
2018-04-27T13:20:59.335Z,99680.34
2018-04-27T13:23:26.981Z,99674.59
2018-04-27T13:25:54.602Z,99661.38
2018-04-27T13:28:22.247Z,99660.88
2018-04-27T13:30:49.862Z,99670.06
2018-04-27T13:33:17.507Z,99668.22
2018-04-27T13:35:45.107Z,99666.78
2018-04-27T13:38:12.763Z,99651.80
2018-04-27T13:40:40.372Z,99641.51
2018-04-27T13:43:08.020Z,99640.70
2018-04-27T13:45:35.651Z,99625.11
2018-04-27T13:48:03.323Z,99627.49
2018-04-27T13:50:30.990Z,99635.09
2018-04-27T13:52:58.647Z,99636.55
2018-04-27T13:55:26.264Z,99625.36
2018-04-27T13:57:53.902Z,99630.05
2018-04-27T14:00:21.597Z,99624.70
2018-04-27T14:02:49.263Z,99618.51
2018-04-27T14:05:16.952Z,99612.59
2018-04-27T14:07:44.592Z,99600.28
2018-04-27T14:10:12.212Z,99594.65
2018-04-27T14:12:39.875Z,99594.44
2018-04-27T14:15:07.489Z,99592.91
2018-04-27T14:17:35.141Z,99581.56
2018-04-27T14:20:02.765Z,99567.13
2018-04-27T14:22:30.420Z,99573.13
2018-04-27T14:24:58.027Z,99575.59
2018-04-27T14:27:25.685Z,99568.68
2018-04-27T14:29:53.341Z,99574.07
2018-04-27T14:32:21.059Z,99572.44
2018-04-27T14:34:48.640Z,99575.75
2018-04-27T14:37:16.283Z,99574.08
2018-04-27T14:39:43.894Z,99559.58
2018-04-27T14:42:11.545Z,99562.32
2018-04-27T14:44:39.170Z,99568.58
2018-04-27T14:47:06.780Z,99556.90
2018-04-27T14:49:34.436Z,99560.63
2018-04-27T14:52:02.045Z,99563.68
2018-04-27T14:54:29.720Z,99559.74
2018-04-27T14:56:57.343Z,99554.77
2018-04-27T14:59:25.008Z,99550.94
2018-04-27T15:01:52.613Z,99548.84
2018-04-27T15:04:20.255Z,99548.31
2018-04-27T15:06:47.869Z,99541.56
2018-04-27T15:09:15.514Z,99542.22
2018-04-27T15:11:43.111Z,99536.09
2018-04-27T15:14:10.782Z,99544.17
2018-04-27T15:16:38.443Z,99538.16
2018-04-27T15:19:06.188Z,99534.30
2018-04-27T15:21:33.801Z,99532.74
2018-04-27T15:24:01.439Z,99530.66
2018-04-27T15:26:29.122Z,99523.27
2018-04-27T15:28:56.811Z,99528.48
2018-04-27T15:31:24.459Z,99530.65
2018-04-27T15:33:52.122Z,99526.28
2018-04-27T15:36:19.911Z,99521.41
2018-04-27T15:38:47.558Z,99516.95
2018-04-27T15:41:15.158Z,99501.09
2018-04-27T15:43:42.811Z,99497.75
2018-04-27T15:46:10.424Z,99500.27
2018-04-27T15:48:38.135Z,99490.83
2018-04-27T15:51:05.736Z,99490.58
2018-04-27T15:53:33.450Z,99494.74
2018-04-27T15:56:01.055Z,99488.42
2018-04-27T15:58:28.703Z,99486.77
2018-04-27T16:00:56.307Z,99476.17
2018-04-27T16:03:24.016Z,99479.28
2018-04-27T16:05:51.619Z,99485.69
2018-04-27T16:08:19.262Z,99480.34
2018-04-27T16:10:46.879Z,99482.00
2018-04-27T16:16:31.384Z,99483.48
2018-04-27T16:19:00.548Z,99476.34
2018-04-27T16:21:28.237Z,99471.75
2018-04-27T16:23:55.949Z,99472.45
2018-04-27T16:26:38.470Z,99472.45
2018-04-27T16:29:06.115Z,99472.49
2018-04-27T16:31:33.719Z,99471.67
2018-04-27T16:34:01.368Z,99472.61
2018-04-27T16:36:29.000Z,99471.08
2018-04-27T16:38:56.647Z,99474.14
2018-04-27T16:41:24.252Z,99460.40
2018-04-27T16:43:51.900Z,99461.02
2018-04-27T16:46:19.543Z,99464.16
2018-04-27T16:48:47.191Z,99465.02
2018-04-27T16:51:14.791Z,99465.48
2018-04-27T16:53:42.434Z,99466.65
2018-04-27T16:56:10.103Z,99468.16
2018-04-27T16:58:37.746Z,99464.52
2018-04-27T17:01:05.414Z,99466.33
2018-04-27T17:03:33.288Z,99466.42
2018-04-27T17:06:00.831Z,99465.81
2018-04-27T17:08:28.485Z,99470.75
2018-04-27T17:10:56.174Z,99473.04
2018-04-27T17:13:23.872Z,99471.64
2018-04-27T17:15:51.487Z,99471.80
2018-04-27T17:18:19.136Z,99469.11
2018-04-27T17:20:46.756Z,99473.45
2018-04-27T17:23:14.411Z,99466.31
2018-04-27T17:25:42.040Z,99463.30
2018-04-27T17:28:09.696Z,99462.39
2018-04-27T17:30:37.307Z,99469.06
2018-04-27T17:33:04.987Z,99462.92
2018-04-27T17:35:32.586Z,99470.08
2018-04-27T17:38:00.236Z,99474.38
2018-04-27T17:40:27.921Z,99474.77
2018-04-27T17:42:55.583Z,99470.58
2018-04-27T17:45:23.195Z,99467.63
2018-04-27T17:47:50.880Z,99470.92
2018-04-27T17:50:18.578Z,99466.00
2018-04-27T17:52:46.188Z,99466.72
2018-04-27T17:55:13.843Z,99462.24
2018-04-27T17:57:41.449Z,99464.02
2018-04-27T18:00:09.145Z,99468.97
2018-04-27T18:02:36.742Z,99471.77
2018-04-27T18:05:04.383Z,99473.70
2018-04-27T18:07:32.047Z,99479.88
2018-04-27T18:09:59.677Z,99483.05
2018-04-27T18:12:27.283Z,99484.10
2018-04-27T18:14:54.930Z,99486.80
2018-04-27T18:17:22.647Z,99494.80
2018-04-27T18:19:50.296Z,99497.20
2018-04-27T18:22:17.907Z,99500.98
2018-04-27T18:24:45.591Z,99498.31
2018-04-27T18:27:13.203Z,99498.66
2018-04-27T18:29:40.850Z,99501.00
2018-04-27T18:32:08.450Z,99501.17
2018-04-27T18:34:36.130Z,99501.19
2018-04-27T18:37:03.783Z,99498.40
2018-04-27T18:39:31.427Z,99498.80
2018-04-27T18:41:59.044Z,99503.79
2018-04-27T18:44:26.725Z,99502.23
2018-04-27T18:46:54.356Z,99503.91
2018-04-27T18:49:22.059Z,99508.36
2018-04-27T18:51:49.694Z,99515.25
2018-04-27T18:54:17.394Z,99506.30
2018-04-27T18:56:45.080Z,99512.52
2018-04-27T18:59:12.744Z,99517.91
2018-04-27T19:01:40.350Z,99518.45
2018-04-27T19:04:08.028Z,99527.31
2018-04-27T19:06:35.648Z,99523.39
2018-04-27T19:09:03.359Z,99529.69
2018-04-27T19:11:31.038Z,99534.81
2018-04-27T19:13:58.705Z,99537.05
2018-04-27T19:16:26.329Z,99532.06
2018-04-27T19:18:56.761Z,99534.78
2018-04-27T19:21:24.452Z,99535.33
2018-04-27T19:23:54.870Z,99539.39
2018-04-27T19:26:22.609Z,99542.05
2018-04-27T19:28:50.341Z,99544.73
2018-04-27T19:31:18.033Z,99545.24
2018-04-27T19:33:45.682Z,99546.09
2018-04-27T19:36:13.310Z,99553.34
2018-04-27T19:38:41.024Z,99557.88
2018-04-27T19:41:08.639Z,99566.36
2018-04-27T19:43:36.303Z,99556.87
2018-04-27T19:46:03.909Z,99557.34
2018-04-27T19:48:31.550Z,99562.77
2018-04-27T19:50:59.150Z,99556.45
2018-04-27T19:53:26.801Z,99559.36
2018-04-27T19:55:54.423Z,99560.27
2018-04-27T19:58:22.065Z,99564.77
2018-04-27T20:00:49.760Z,99564.08
2018-04-27T20:03:17.382Z,99561.66
2018-04-27T20:05:46.863Z,99566.20
2018-04-27T20:08:14.507Z,99567.36
2018-04-27T20:10:45.256Z,99566.30
2018-04-27T20:13:19.515Z,99567.00
2018-04-27T20:15:52.052Z,99567.89
2018-04-27T20:18:20.393Z,99571.64
2018-04-27T20:20:48.140Z,99569.69
2018-04-27T20:23:15.812Z,99575.89
2018-04-27T20:25:43.518Z,99576.34
2018-04-27T20:28:11.150Z,99581.81
2018-04-27T20:30:39.698Z,99583.80
2018-04-27T20:33:08.752Z,99591.88
2018-04-27T20:35:36.430Z,99591.45
2018-04-27T20:38:29.522Z,99600.86
2018-04-27T20:40:57.226Z,99603.44
2018-04-27T20:43:24.866Z,99604.93
2018-04-27T20:45:55.421Z,99604.80
2018-04-27T20:48:24.787Z,99610.00
2018-04-27T20:51:00.068Z,99608.41
2018-04-27T20:53:28.469Z,99608.43
2018-04-27T20:56:02.542Z,99613.30
2018-04-27T20:58:30.223Z,99608.23
2018-04-27T21:00:58.816Z,99615.11
2018-04-27T21:03:26.530Z,99613.77
2018-04-27T21:05:54.259Z,99617.98
2018-04-27T21:08:21.932Z,99627.14
2018-04-27T21:10:49.614Z,99633.66
2018-04-27T21:13:17.237Z,99634.47
2018-04-27T21:15:44.913Z,99637.75
2018-04-27T21:18:15.438Z,99642.59
2018-04-27T21:20:43.105Z,99636.23
2018-04-27T21:23:10.724Z,99646.88
2018-04-27T21:25:38.439Z,99639.24
2018-04-27T21:28:09.578Z,99648.31
2018-04-27T21:30:37.335Z,99640.66
2018-04-27T21:33:05.023Z,99635.31
2018-04-27T21:38:48.110Z,99630.38
2018-04-27T21:44:15.478Z,99642.59
2018-04-27T21:46:43.203Z,99647.03
2018-04-27T21:49:10.893Z,99652.41
2018-04-27T21:51:40.195Z,99649.25
2018-04-27T21:54:10.487Z,99660.77
2018-04-27T21:56:46.727Z,99655.84
2018-04-27T21:59:18.183Z,99656.86
2018-04-27T22:01:46.278Z,99660.80
2018-04-27T22:04:13.939Z,99662.44
2018-04-27T22:06:42.230Z,99661.03
2018-04-27T22:09:09.887Z,99666.37
2018-04-27T22:11:41.628Z,99667.29
2018-04-27T22:14:10.141Z,99677.50
2018-04-27T22:16:40.587Z,99673.75
2018-04-27T22:19:08.301Z,99681.68
2018-04-27T22:21:38.823Z,99685.73
2018-04-27T22:24:07.243Z,99687.64
2018-04-27T22:26:35.026Z,99689.48
2018-04-27T22:29:06.355Z,99690.94
2018-04-27T22:31:34.091Z,99689.54
2018-04-27T22:34:02.610Z,99696.13
2018-04-27T22:36:31.839Z,99695.63
2018-04-27T22:42:09.068Z,99708.93
2018-04-27T22:47:38.074Z,99701.81
2018-04-27T22:50:06.673Z,99710.03
2018-04-27T22:52:35.051Z,99710.87
2018-04-27T22:55:02.775Z,99709.63
2018-04-27T22:57:34.328Z,99712.80
2018-04-27T23:00:12.382Z,99714.49
2018-04-27T23:02:40.092Z,99722.00
2018-04-27T23:08:06.519Z,99720.75
2018-04-27T23:10:40.153Z,99726.78
2018-04-27T23:13:07.868Z,99729.41
2018-04-27T23:15:36.987Z,99729.31
2018-04-27T23:18:21.360Z,99740.88
2018-04-27T23:20:49.061Z,99742.37
2018-04-27T23:23:17.516Z,99742.28
2018-04-27T23:25:54.082Z,99746.52
2018-04-27T23:28:21.754Z,99739.08
2018-04-27T23:30:49.435Z,99750.45
2018-04-27T23:33:17.084Z,99745.09
2018-04-27T23:36:00.416Z,99748.61
2018-04-27T23:38:28.155Z,99744.52
2018-04-27T23:40:58.624Z,99742.84
2018-04-27T23:43:26.351Z,99744.95
2018-04-27T23:45:53.968Z,99738.66
2018-04-27T23:48:21.658Z,99743.53
2018-04-27T23:50:50.094Z,99748.87
2018-04-27T23:53:17.801Z,99745.25
2018-04-27T23:55:45.583Z,99746.19
2018-04-27T23:58:20.903Z,99742.84
